Time;durP1;ratioP1;P1;durP2;ratioP2;P2;SDS_P1;SDS_P2;PMS_P1;PMS_P2;Temp;Humidity;BMP_temperature;BMP_pressure;BME280_temperature;BME280_humidity;BME280_pressure;Samples;Min_cycle;Max_cycle;Signal;HPM_P1;HPM_P2
2023/03/31 00:01:35;;;;;;;6.60;1.10;;;12.40;81.10;;;;;;5029633;28;20422;-63
2023/03/31 00:04:04;;;;;;;8.10;1.60;;;12.40;78.70;;;;;;5030335;28;20387;-63
2023/03/31 00:06:36;;;;;;;6.40;1.40;;;12.40;84.90;;;;;;5029435;28;20434;-62
2023/03/31 00:09:06;;;;;;;7.20;1.40;;;12.50;99.90;;;;;;5030338;28;20872;-63
2023/03/31 00:11:32;;;;;;;6.80;1.00;;;12.30;99.90;;;;;;5029405;28;20444;-63
2023/03/31 00:13:58;;;;;;;6.30;1.25;;;12.30;99.90;;;;;;5030396;28;20736;-63
2023/03/31 00:16:23;;;;;;;6.90;1.10;;;12.30;99.90;;;;;;5030359;28;20389;-63
2023/03/31 00:18:49;;;;;;;7.70;1.40;;;12.20;99.90;;;;;;5029556;28;20379;-64
2023/03/31 00:21:23;;;;;;;9.60;1.60;;;12.10;99.90;;;;;;5047760;28;20743;-63
2023/03/31 00:23:52;;;;;;;8.20;1.50;;;12.00;99.90;;;;;;5049460;28;20377;-62
2023/03/31 00:26:18;;;;;;;12.18;1.90;;;12.00;99.90;;;;;;5049490;28;20416;-64
2023/03/31 00:28:43;;;;;;;6.43;1.20;;;12.00;99.90;;;;;;5047352;28;20548;-63
2023/03/31 00:31:09;;;;;;;8.00;1.10;;;11.90;99.90;;;;;;5049772;28;20382;-63
2023/03/31 00:33:35;;;;;;;4.70;1.00;;;11.80;99.90;;;;;;5048014;28;20396;-63
2023/03/31 00:36:04;;;;;;;5.82;1.33;;;11.70;99.90;;;;;;5049121;28;20397;-63
2023/03/31 00:38:31;;;;;;;8.90;1.50;;;11.70;99.90;;;;;;5049095;28;20385;-63
2023/03/31 00:40:57;;;;;;;6.03;1.27;;;11.70;1.00;;;;;;5049738;28;20826;-64
2023/03/31 00:43:33;;;;;;;6.78;1.50;;;11.70;1.00;;;;;;5049518;28;20395;-63
2023/03/31 00:46:05;;;;;;;7.38;1.30;;;11.70;1.00;;;;;;5049627;28;20417;-63
2023/03/31 00:48:33;;;;;;;5.30;1.10;;;11.70;1.00;;;;;;5048702;28;20378;-63
2023/03/31 00:51:04;;;;;;;9.93;1.70;;;11.70;1.00;;;;;;5049863;28;20405;-63
2023/03/31 00:53:33;;;;;;;6.20;1.50;;;11.70;1.00;;;;;;5048987;28;20381;-62
2023/03/31 00:56:05;;;;;;;7.72;1.75;;;11.70;1.00;;;;;;5049841;28;20435;-63
2023/03/31 00:58:32;;;;;;;8.50;1.60;;;11.70;1.00;;;;;;5047363;28;20438;-63
2023/03/31 01:01:00;;;;;;;8.48;1.58;;;11.30;99.90;;;;;;5049454;28;20409;-63
2023/03/31 01:03:29;;;;;;;9.65;2.20;;;11.40;1.00;;;;;;5048920;28;20427;-62
2023/03/31 01:06:03;;;;;;;7.03;1.60;;;11.30;99.90;;;;;;5049609;28;20951;-63
2023/03/31 01:08:30;;;;;;;13.38;1.85;;;11.30;99.90;;;;;;5049357;28;20857;-63
2023/03/31 01:11:02;;;;;;;8.20;1.40;;;11.50;1.00;;;;;;5049161;28;20712;-63
2023/03/31 01:13:29;;;;;;;7.10;1.67;;;11.70;99.90;;;;;;5048747;28;20846;-60
2023/03/31 01:15:55;;;;;;;5.20;1.17;;;11.80;99.90;;;;;;5049569;28;20434;-62
2023/03/31 01:18:21;;;;;;;6.80;1.30;;;12.00;99.90;;;;;;5049054;28;20436;-62
2023/03/31 01:21:17;;;;;;;7.25;1.20;;;12.10;99.90;;;;;;5048867;28;20479;-63
2023/03/31 01:24:50;;;;;;;7.40;1.27;;;12.20;96.40;;;;;;5048641;28;20400;-63
2023/03/31 01:27:33;;;;;;;5.93;1.40;;;12.20;35.10;;;;;;4968381;28;20424;-63
2023/03/31 01:30:21;;;;;;;7.70;1.40;;;12.20;18.10;;;;;;5027144;28;20421;-64
2023/03/31 01:33:22;;;;;;;5.88;1.27;;;12.30;20.10;;;;;;5048808;28;20695;-63
2023/03/31 01:36:08;;;;;;;7.68;1.40;;;12.40;10.40;;;;;;5049187;28;20378;-62
2023/03/31 01:39:01;;;;;;;7.40;1.40;;;12.40;26.70;;;;;;5050797;28;20374;-63
2023/03/31 01:41:36;;;;;;;6.47;1.20;;;12.30;14.30;;;;;;5053052;28;20416;-63
2023/03/31 01:44:23;;;;;;;7.73;1.57;;;12.30;1.00;;;;;;5053574;28;20435;-62
2023/03/31 01:47:00;;;;;;;7.95;1.60;;;12.30;1.00;;;;;;5052202;28;20546;-62
2023/03/31 01:49:34;;;;;;;7.57;1.50;;;12.30;1.00;;;;;;5032607;28;20453;-62
2023/03/31 01:52:05;;;;;;;6.73;1.00;;;12.30;12.60;;;;;;5033042;28;20380;-63
2023/03/31 01:54:56;;;;;;;8.75;1.48;;;12.40;9.90;;;;;;5032195;28;20425;-62
2023/03/31 01:57:28;;;;;;;7.70;1.65;;;12.30;7.50;;;;;;5032786;28;20399;-62
2023/03/31 02:00:08;;;;;;;6.30;1.20;;;12.20;13.20;;;;;;5032940;28;20860;-62
2023/03/31 02:03:00;;;;;;;5.15;1.40;;;12.10;32.60;;;;;;5051712;28;20385;-62
2023/03/31 02:05:31;;;;;;;5.55;1.30;;;12.00;29.70;;;;;;5052297;28;20705;-61
2023/03/31 02:08:24;;;;;;;4.95;1.10;;;12.00;36.30;;;;;;5052484;28;20382;-62
2023/03/31 02:10:51;;;;;;;4.95;0.98;;;11.90;1.00;;;;;;5051016;28;20396;-62
2023/03/31 02:13:20;;;;;;;5.45;1.15;;;11.90;14.70;;;;;;5052466;28;20381;-61
2023/03/31 02:15:52;;;;;;;4.88;0.93;;;11.90;1.00;;;;;;5051280;28;20428;-62
2023/03/31 02:18:24;;;;;;;7.20;1.00;;;11.90;1.00;;;;;;5052069;28;20378;-62
2023/03/31 02:20:53;;;;;;;6.55;0.80;;;12.00;1.00;;;;;;5051569;28;20392;-60
2023/03/31 02:23:22;;;;;;;6.53;1.00;;;12.10;1.00;;;;;;5052188;28;20397;-62
2023/03/31 02:25:51;;;;;;;8.10;1.40;;;11.90;1.00;;;;;;5051592;28;20425;-62
2023/03/31 02:28:21;;;;;;;6.38;1.17;;;11.80;15.00;;;;;;5052154;28;20382;-62
2023/03/31 02:31:15;;;;;;;4.85;0.80;;;11.90;12.40;;;;;;5051481;28;20421;-62
2023/03/31 02:33:40;;;;;;;5.32;0.68;;;11.80;99.90;;;;;;5035993;28;20426;-62
2023/03/31 02:36:07;;;;;;;6.97;1.00;;;11.70;99.90;;;;;;5051319;28;20842;-62
2023/03/31 02:38:38;;;;;;;5.82;1.10;;;11.70;99.90;;;;;;5047510;28;20375;-62
2023/03/31 02:41:04;;;;;;;7.10;1.10;;;11.80;1.00;;;;;;5040152;28;20415;-62
2023/03/31 02:43:30;;;;;;;7.22;1.48;;;11.70;99.90;;;;;;5051090;28;20438;-62
2023/03/31 02:45:55;;;;;;;6.93;1.37;;;11.80;99.90;;;;;;5051337;28;20502;-63
2023/03/31 02:48:26;;;;;;;6.97;1.20;;;11.80;99.90;;;;;;5051706;28;20390;-62
2023/03/31 02:51:06;;;;;;;6.95;1.15;;;11.90;99.90;;;;;;5050392;28;20381;-62
2023/03/31 02:53:56;;;;;;;7.00;1.30;;;12.10;99.90;;;;;;5051111;28;20438;-62
2023/03/31 02:56:49;;;;;;;6.28;1.05;;;12.10;99.90;;;;;;5051689;28;20390;-62
2023/03/31 02:59:23;;;;;;;6.97;1.30;;;12.20;99.90;;;;;;5051793;28;20859;-62
2023/03/31 03:02:05;;;;;;;5.40;1.30;;;12.20;99.90;;;;;;5049679;28;20409;-64
2023/03/31 03:04:55;;;;;;;5.60;1.20;;;12.10;99.90;;;;;;5051042;28;20420;-62
2023/03/31 03:07:47;;;;;;;8.07;1.40;;;12.00;99.90;;;;;;5051675;28;20405;-62
2023/03/31 03:10:40;;;;;;;6.80;1.30;;;12.00;99.90;;;;;;5050856;28;20733;-61
2023/03/31 03:13:16;;;;;;;7.00;1.60;;;12.00;99.90;;;;;;5050863;28;20378;-64
2023/03/31 03:15:55;;;;;;;10.15;1.80;;;12.00;99.90;;;;;;5050537;28;20416;-63
2023/03/31 03:18:20;;;;;;;7.00;1.73;;;11.90;1.00;;;;;;5051345;28;20415;-65
2023/03/31 03:20:48;;;;;;;5.70;1.20;;;11.90;1.00;;;;;;5050184;28;20981;-64
2023/03/31 03:23:15;;;;;;;7.63;1.80;;;11.90;1.00;;;;;;5051665;28;20401;-64
2023/03/31 03:25:41;;;;;;;8.30;1.70;;;11.70;1.00;;;;;;5052383;28;20419;-64
2023/03/31 03:28:07;;;;;;;8.70;1.90;;;11.70;1.00;;;;;;5052146;28;20454;-65
2023/03/31 03:30:32;;;;;;;7.28;1.77;;;11.70;1.00;;;;;;5050145;28;20496;-64
2023/03/31 03:32:58;;;;;;;10.70;2.10;;;11.70;1.00;;;;;;5050676;28;20428;-63
2023/03/31 03:35:24;;;;;;;7.40;1.98;;;11.60;1.00;;;;;;5050743;28;20728;-62
2023/03/31 03:37:49;;;;;;;6.78;1.60;;;11.50;1.00;;;;;;5050073;28;20374;-62
2023/03/31 03:40:15;;;;;;;6.80;1.80;;;11.60;1.00;;;;;;5051054;28;20388;-64
2023/03/31 03:42:41;;;;;;;7.00;1.90;;;11.60;1.00;;;;;;5050053;28;20735;-62
2023/03/31 03:45:07;;;;;;;7.00;1.70;;;11.60;1.00;;;;;;5050653;28;20388;-63
2023/03/31 03:47:33;;;;;;;7.87;1.93;;;11.60;1.00;;;;;;5049916;28;20421;-64
2023/03/31 03:49:59;;;;;;;7.30;1.40;;;11.50;1.00;;;;;;5050419;28;20923;-62
2023/03/31 03:52:25;;;;;;;8.47;2.10;;;11.60;1.00;;;;;;5050730;28;20393;-62
2023/03/31 03:54:50;;;;;;;7.72;2.22;;;11.70;1.00;;;;;;5052503;28;20393;-63
2023/03/31 03:57:16;;;;;;;6.30;1.53;;;11.60;1.00;;;;;;5059865;28;20435;-65
2023/03/31 03:59:41;;;;;;;6.95;1.80;;;11.50;1.00;;;;;;5059627;28;20475;-62
2023/03/31 04:02:07;;;;;;;7.50;1.60;;;12.00;99.90;;;;;;5060424;28;21435;-62
2023/03/31 04:04:32;;;;;;;7.97;2.43;;;11.40;99.90;;;;;;5057410;28;20419;-63
2023/03/31 04:06:58;;;;;;;9.65;2.47;;;11.40;1.00;;;;;;5058779;28;20401;-60
2023/03/31 04:09:24;;;;;;;5.90;1.70;;;11.30;1.00;;;;;;5058774;28;20388;-64
2023/03/31 04:11:49;;;;;;;9.32;2.10;;;11.30;99.90;;;;;;5059987;28;20418;-62
2023/03/31 04:14:15;;;;;;;7.50;1.90;;;11.20;99.90;;;;;;5061195;28;20399;-62
2023/03/31 04:16:41;;;;;;;7.28;2.05;;;11.10;99.90;;;;;;5058980;28;20390;-63
2023/03/31 04:19:07;;;;;;;6.60;1.87;;;11.00;1.00;;;;;;5051686;28;20378;-63
2023/03/31 04:21:36;;;;;;;9.25;2.30;;;10.90;1.00;;;;;;5049162;28;20909;-62
2023/03/31 04:24:03;;;;;;;7.78;2.30;;;10.90;1.00;;;;;;5050075;28;20472;-63
2023/03/31 04:26:37;;;;;;;7.70;2.38;;;10.90;77.80;;;;;;5049281;28;20421;-59
2023/03/31 04:29:04;;;;;;;6.68;2.22;;;10.90;99.90;;;;;;5049580;28;20973;-63
2023/03/31 04:31:30;;;;;;;5.80;2.10;;;11.00;99.90;;;;;;5049809;28;20396;-60
2023/03/31 04:34:01;;;;;;;8.73;2.27;;;11.00;43.90;;;;;;5049236;28;20468;-64
2023/03/31 04:36:27;;;;;;;9.00;2.13;;;11.10;1.00;;;;;;5049624;28;20401;-63
2023/03/31 04:38:53;;;;;;;10.52;2.45;;;11.10;99.90;;;;;;5049146;28;20516;-64
2023/03/31 04:41:23;;;;;;;9.15;2.38;;;11.20;1.00;;;;;;5049454;28;20787;-63
2023/03/31 04:43:48;;;;;;;9.70;2.45;;;11.10;1.00;;;;;;5048976;28;20381;-63
2023/03/31 04:46:14;;;;;;;9.80;2.20;;;11.20;1.00;;;;;;5046976;28;20417;-61
2023/03/31 04:48:40;;;;;;;8.07;2.37;;;11.20;1.00;;;;;;5042738;28;20407;-62
2023/03/31 04:51:05;;;;;;;10.63;2.40;;;11.30;99.90;;;;;;5049402;28;20806;-62
2023/03/31 04:53:32;;;;;;;8.00;2.23;;;11.40;99.90;;;;;;5049254;28;20378;-63
2023/03/31 04:55:57;;;;;;;8.50;2.40;;;11.40;1.00;;;;;;5030393;28;20383;-62
2023/03/31 04:58:23;;;;;;;9.15;2.80;;;11.40;1.00;;;;;;5029529;28;20398;-62
2023/03/31 05:00:49;;;;;;;7.10;2.53;;;11.50;1.00;;;;;;5034945;28;20634;-64
2023/03/31 05:03:14;;;;;;;7.55;2.10;;;11.50;1.00;;;;;;5049197;28;20383;-63
2023/03/31 05:05:40;;;;;;;9.30;2.40;;;11.70;1.00;;;;;;5048818;28;20504;-63
2023/03/31 05:08:05;;;;;;;8.40;2.20;;;11.60;1.00;;;;;;5049334;28;20417;-62
2023/03/31 05:10:31;;;;;;;10.93;2.87;;;11.50;99.90;;;;;;5048757;28;20386;-60
2023/03/31 05:12:57;;;;;;;10.25;2.90;;;11.40;1.00;;;;;;5050845;28;20373;-63
2023/03/31 05:15:25;;;;;;;8.52;2.85;;;11.40;86.30;;;;;;5053483;28;20487;-63
2023/03/31 05:17:52;;;;;;;7.10;2.40;;;11.40;99.90;;;;;;5036229;28;20375;-63
2023/03/31 05:20:19;;;;;;;7.10;2.60;;;11.40;1.00;;;;;;5033155;28;20391;-63
2023/03/31 05:22:45;;;;;;;13.60;2.85;;;11.60;99.90;;;;;;5033013;28;20374;-64
2023/03/31 05:25:17;;;;;;;8.47;2.40;;;11.50;99.90;;;;;;5033467;28;20501;-64
2023/03/31 05:27:48;;;;;;;10.25;3.13;;;11.50;1.00;;;;;;5032658;28;20454;-65
2023/03/31 05:30:15;;;;;;;9.02;2.50;;;11.40;99.90;;;;;;5032714;28;20468;-64
2023/03/31 05:32:41;;;;;;;11.90;3.40;;;11.20;99.90;;;;;;5032567;28;20862;-64
2023/03/31 05:35:07;;;;;;;9.13;3.17;;;11.30;1.00;;;;;;5032862;28;20375;-66
2023/03/31 05:37:33;;;;;;;15.45;3.60;;;11.30;1.00;;;;;;5032451;28;20395;-64
2023/03/31 05:39:59;;;;;;;12.60;3.37;;;11.30;1.00;;;;;;5033662;28;20449;-64
2023/03/31 05:42:24;;;;;;;12.35;3.50;;;11.20;1.00;;;;;;5032961;28;20398;-63
2023/03/31 05:44:50;;;;;;;11.03;3.37;;;11.30;1.00;;;;;;5051816;28;20426;-64
2023/03/31 05:47:16;;;;;;;14.37;3.30;;;11.40;1.00;;;;;;5052665;28;20409;-63
2023/03/31 05:49:42;;;;;;;11.55;4.13;;;11.30;1.00;;;;;;5052430;28;20739;-66
2023/03/31 05:52:09;;;;;;;14.00;4.10;;;11.20;1.00;;;;;;5052905;28;20925;-64
2023/03/31 05:54:34;;;;;;;11.90;3.30;;;11.10;97.80;;;;;;5052099;28;20370;-66
2023/03/31 05:57:00;;;;;;;9.85;3.10;;;11.10;99.90;;;;;;5052953;28;20887;-64
2023/03/31 05:59:26;;;;;;;11.87;3.53;;;11.10;99.90;;;;;;5052624;28;20408;-64
2023/03/31 06:01:51;;;;;;;14.50;3.60;;;11.10;99.90;;;;;;5052056;28;20393;-64
2023/03/31 06:04:17;;;;;;;14.60;4.17;;;11.00;99.90;;;;;;5049523;28;20439;-64
2023/03/31 06:06:43;;;;;;;14.23;5.00;;;11.00;99.90;;;;;;5048264;28;20882;-62
2023/03/31 06:09:11;;;;;;;8.70;3.60;;;11.00;99.90;;;;;;5052170;28;20389;-64
2023/03/31 06:11:36;;;;;;;15.27;4.43;;;11.10;99.90;;;;;;5051713;28;20393;-64
2023/03/31 06:14:02;;;;;;;10.73;3.78;;;11.10;99.90;;;;;;5052269;28;20382;-64
2023/03/31 06:16:28;;;;;;;9.53;3.70;;;11.10;99.90;;;;;;5052360;28;20388;-64
2023/03/31 06:18:54;;;;;;;15.90;4.22;;;11.60;99.90;;;;;;5051772;28;20401;-64
2023/03/31 06:21:20;;;;;;;10.65;3.80;;;11.10;99.90;;;;;;5051825;28;20462;-64
2023/03/31 06:23:47;;;;;;;13.65;4.30;;;11.10;1.00;;;;;;5050412;28;20461;-64
2023/03/31 06:26:17;;;;;;;10.68;4.15;;;11.10;1.00;;;;;;5051452;28;20406;-64
2023/03/31 06:28:44;;;;;;;12.98;4.20;;;11.10;1.00;;;;;;5050784;28;20854;-63
2023/03/31 06:31:12;;;;;;;11.03;4.37;;;11.00;1.00;;;;;;5034032;28;20799;-63
2023/03/31 06:33:40;;;;;;;8.60;3.77;;;10.90;1.00;;;;;;5033930;28;20392;-64
2023/03/31 06:36:06;;;;;;;12.57;3.70;;;10.90;1.00;;;;;;5051745;28;20446;-63
2023/03/31 06:38:33;;;;;;;11.15;4.32;;;10.90;1.00;;;;;;5051236;28;20735;-63
2023/03/31 06:40:59;;;;;;;11.23;3.55;;;10.90;1.00;;;;;;5051665;28;20393;-63
2023/03/31 06:43:24;;;;;;;10.93;4.33;;;10.90;1.00;;;;;;5050265;28;20394;-63
2023/03/31 06:45:52;;;;;;;10.45;4.50;;;10.90;1.00;;;;;;5050938;28;20413;-63
2023/03/31 06:48:18;;;;;;;9.48;3.85;;;10.80;1.00;;;;;;5051338;28;20451;-63
2023/03/31 06:50:43;;;;;;;10.73;4.30;;;10.90;1.00;;;;;;5050202;28;20381;-63
2023/03/31 06:53:10;;;;;;;15.97;4.50;;;10.80;1.00;;;;;;5051181;28;20417;-63
2023/03/31 06:55:36;;;;;;;11.40;4.38;;;10.80;1.00;;;;;;5050349;28;20386;-63
2023/03/31 06:58:02;;;;;;;9.52;3.90;;;10.90;1.00;;;;;;5051260;28;20385;-63
2023/03/31 07:00:28;;;;;;;17.85;5.10;;;10.80;1.00;;;;;;5033356;28;20404;-62
2023/03/31 07:02:54;;;;;;;14.95;4.38;;;10.80;1.00;;;;;;5049217;28;20747;-63
2023/03/31 07:05:26;;;;;;;12.13;4.80;;;10.80;1.00;;;;;;5050942;28;20460;-63
2023/03/31 07:07:52;;;;;;;11.27;4.22;;;10.80;1.00;;;;;;5050491;28;20385;-63
2023/03/31 07:10:20;;;;;;;8.70;3.90;;;10.90;1.00;;;;;;5051074;28;20592;-62
2023/03/31 07:12:45;;;;;;;9.43;3.83;;;10.90;1.00;;;;;;5050581;28;20382;-62
2023/03/31 07:15:11;;;;;;;12.30;4.17;;;10.90;1.00;;;;;;5051093;28;20400;-63
2023/03/31 07:17:40;;;;;;;12.05;4.22;;;11.10;1.00;;;;;;5050184;28;20771;-62
2023/03/31 07:20:13;;;;;;;12.38;4.20;;;10.90;1.00;;;;;;5050415;28;20432;-62
2023/03/31 07:22:40;;;;;;;12.10;4.43;;;11.00;1.00;;;;;;5049424;28;20393;-62
2023/03/31 07:25:08;;;;;;;9.30;3.42;;;11.00;1.00;;;;;;5050660;28;20382;-62
2023/03/31 07:27:34;;;;;;;9.82;4.00;;;11.20;1.00;;;;;;5049536;28;20525;-62
2023/03/31 07:30:00;;;;;;;10.95;3.55;;;11.00;1.00;;;;;;5050148;28;20406;-62
2023/03/31 07:32:25;;;;;;;10.73;3.08;;;11.00;1.00;;;;;;5050074;28;20386;-62
2023/03/31 07:34:51;;;;;;;9.83;3.20;;;11.00;1.00;;;;;;5049644;28;20374;-63
2023/03/31 07:37:17;;;;;;;6.73;2.63;;;11.00;1.00;;;;;;5049640;28;20724;-62
2023/03/31 07:39:42;;;;;;;10.00;3.33;;;11.10;1.00;;;;;;5050315;28;20381;-62
2023/03/31 07:42:08;;;;;;;10.30;2.53;;;11.30;99.90;;;;;;5032765;28;20853;-62
2023/03/31 07:44:34;;;;;;;6.80;2.60;;;11.50;99.90;;;;;;5049577;28;20389;-62
2023/03/31 07:47:04;;;;;;;7.70;2.65;;;11.60;99.90;;;;;;5050002;28;20758;-62
2023/03/31 07:49:31;;;;;;;6.40;1.80;;;14.50;99.90;;;;;;5049744;28;20385;-62
2023/03/31 07:51:57;;;;;;;6.50;1.70;;;14.90;1.00;;;;;;5050482;28;20416;-62
2023/03/31 07:54:22;;;;;;;5.73;1.30;;;16.10;99.90;;;;;;5050350;28;20811;-62
2023/03/31 07:56:48;;;;;;;6.00;1.20;;;16.80;26.50;;;;;;5049700;28;20471;-62
2023/03/31 07:59:14;;;;;;;4.63;1.00;;;16.50;1.00;;;;;;5050323;28;20413;-61
2023/03/31 08:01:39;;;;;;;5.30;1.17;;;16.70;1.00;;;;;;5049508;28;20381;-62
2023/03/31 08:04:05;;;;;;;5.33;1.20;;;17.30;1.00;;;;;;5050235;28;20377;-61
2023/03/31 08:06:32;;;;;;;5.70;1.10;;;16.70;1.00;;;;;;5048981;28;20417;-62
2023/03/31 08:08:58;;;;;;;5.70;1.30;;;17.20;1.00;;;;;;5050043;28;20460;-62
2023/03/31 08:11:24;;;;;;;5.20;1.20;;;16.90;1.00;;;;;;5049896;28;20409;-62
2023/03/31 08:13:50;;;;;;;5.95;1.10;;;17.60;1.00;;;;;;5049346;28;20392;-62
2023/03/31 08:16:16;;;;;;;6.53;1.87;;;17.50;1.00;;;;;;5049711;28;20393;-62
2023/03/31 08:18:42;;;;;;;5.07;1.10;;;17.00;1.00;;;;;;5049205;28;20573;-62
2023/03/31 08:21:08;;;;;;;5.07;0.90;;;16.70;1.00;;;;;;5050149;28;20397;-62
2023/03/31 08:23:34;;;;;;;7.18;1.08;;;16.90;1.00;;;;;;5048838;28;20855;-63
2023/03/31 08:26:07;;;;;;;4.30;0.60;;;18.30;1.00;;;;;;5049328;28;20497;-62
2023/03/31 08:28:32;;;;;;;4.60;0.90;;;18.10;1.00;;;;;;5049287;28;20389;-62
2023/03/31 08:31:06;;;;;;;5.53;1.30;;;18.10;1.00;;;;;;5049848;28;20451;-61
2023/03/31 08:33:32;;;;;;;6.28;1.10;;;17.90;1.00;;;;;;5031141;28;20396;-62
2023/03/31 08:36:06;;;;;;;6.15;0.98;;;18.20;1.00;;;;;;5049118;28;20393;-61
2023/03/31 08:38:32;;;;;;;5.50;0.85;;;18.40;1.00;;;;;;5049011;28;20778;-62
2023/03/31 08:41:01;;;;;;;6.38;0.90;;;18.10;1.00;;;;;;5049207;28;20431;-61
2023/03/31 08:43:32;;;;;;;5.00;1.00;;;17.90;1.00;;;;;;5049346;28;20843;-61
2023/03/31 08:45:58;;;;;;;4.85;0.70;;;18.20;1.00;;;;;;5048883;28;20497;-61
2023/03/31 08:48:43;;;;;;;6.10;1.20;;;17.90;1.00;;;;;;5048697;28;20382;-62
2023/03/31 08:51:20;;;;;;;7.20;1.10;;;17.90;1.00;;;;;;5049447;28;20381;-62
2023/03/31 08:54:06;;;;;;;5.22;1.10;;;17.80;1.00;;;;;;5048910;28;20460;-62
2023/03/31 08:56:37;;;;;;;7.10;1.00;;;19.20;1.00;;;;;;5048974;28;20416;-62
2023/03/31 08:59:04;;;;;;;6.18;1.30;;;19.40;1.00;;;;;;5048810;28;20397;-62
2023/03/31 09:01:42;;;;;;;5.20;0.70;;;19.70;1.00;;;;;;5049354;28;20389;-63
2023/03/31 09:04:28;;;;;;;4.60;1.02;;;18.40;99.90;;;;;;5049124;28;20404;-62
2023/03/31 09:07:18;;;;;;;5.20;1.00;;;17.20;99.90;;;;;;5047075;28;20413;-63
2023/03/31 09:09:50;;;;;;;6.30;1.00;;;17.70;99.90;;;;;;5048319;28;20389;-63
2023/03/31 09:12:22;;;;;;;5.53;0.80;;;18.50;99.90;;;;;;5049500;28;20866;-62
2023/03/31 09:14:57;;;;;;;8.10;1.00;;;18.60;99.90;;;;;;5048696;28;20468;-62
2023/03/31 09:17:30;;;;;;;8.80;1.10;;;18.60;99.90;;;;;;5049003;28;20739;-63
2023/03/31 09:20:13;;;;;;;6.00;0.90;;;19.30;99.90;;;;;;5048515;28;20385;-62
2023/03/31 09:22:49;;;;;;;5.95;1.00;;;18.90;99.90;;;;;;5047974;28;20389;-62
2023/03/31 09:25:21;;;;;;;7.10;1.00;;;18.20;99.90;;;;;;5048635;28;20366;-62
2023/03/31 09:27:51;;;;;;;5.63;1.10;;;18.20;99.90;;;;;;5047593;28;20483;-63
2023/03/31 09:30:23;;;;;;;5.20;1.02;;;18.20;99.90;;;;;;5049086;28;20414;-63
2023/03/31 09:32:53;;;;;;;4.80;0.60;;;17.70;99.90;;;;;;5048515;28;20378;-63
2023/03/31 09:35:26;;;;;;;5.50;0.90;;;17.10;99.90;;;;;;5049203;28;20381;-62
2023/03/31 09:37:52;;;;;;;7.28;0.80;;;15.90;99.90;;;;;;5048235;28;20468;-62
2023/03/31 09:40:24;;;;;;;6.60;0.88;;;16.50;99.90;;;;;;5048135;28;20739;-63
2023/03/31 09:43:05;;;;;;;7.03;0.98;;;16.40;99.90;;;;;;5048332;28;20809;-63
2023/03/31 09:45:35;;;;;;;5.78;0.70;;;17.50;99.90;;;;;;5048764;28;20380;-62
2023/03/31 09:48:06;;;;;;;5.50;0.70;;;17.00;99.90;;;;;;5048826;28;20385;-62
2023/03/31 09:50:39;;;;;;;6.22;0.90;;;16.20;99.90;;;;;;5035193;28;20379;-62
2023/03/31 09:53:10;;;;;;;6.10;0.93;;;16.30;99.90;;;;;;5041001;28;20416;-62
2023/03/31 09:55:59;;;;;;;6.47;1.83;;;15.70;99.90;;;;;;5047729;28;20385;-62
2023/03/31 09:58:25;;;;;;;6.20;0.80;;;15.90;99.90;;;;;;5029386;28;20432;-62
2023/03/31 10:01:05;;;;;;;6.38;1.05;;;16.80;99.90;;;;;;5031658;28;20537;-63
2023/03/31 10:03:35;;;;;;;7.50;0.90;;;16.60;99.90;;;;;;5032451;28;20394;-63
2023/03/31 10:06:08;;;;;;;6.07;1.00;;;16.60;99.90;;;;;;5047959;28;20958;-62
2023/03/31 10:08:40;;;;;;;5.50;0.90;;;16.90;99.90;;;;;;5051355;28;20445;-62
2023/03/31 10:11:12;;;;;;;5.32;0.80;;;17.10;99.90;;;;;;5052379;28;20378;-62
2023/03/31 10:13:46;;;;;;;5.38;1.05;;;16.10;99.90;;;;;;5051398;28;20384;-62
2023/03/31 10:16:22;;;;;;;8.87;0.90;;;15.80;99.90;;;;;;5051309;28;20754;-62
2023/03/31 10:18:48;;;;;;;11.07;1.20;;;15.90;99.90;;;;;;5051624;28;20465;-62
2023/03/31 10:21:25;;;;;;;9.70;1.00;;;15.90;99.90;;;;;;5051947;28;20399;-62
2023/03/31 10:23:53;;;;;;;5.70;1.10;;;16.10;99.90;;;;;;5051158;28;20881;-62
2023/03/31 10:26:24;;;;;;;6.07;0.70;;;15.50;99.90;;;;;;5051789;28;20908;-62
2023/03/31 10:28:51;;;;;;;8.70;0.80;;;15.40;99.90;;;;;;5051341;28;20429;-63
2023/03/31 10:31:18;;;;;;;5.70;0.98;;;15.50;99.90;;;;;;5051825;28;20455;-64
2023/03/31 10:33:46;;;;;;;8.40;1.20;;;15.70;99.90;;;;;;5051199;28;20388;-62
2023/03/31 10:36:25;;;;;;;5.45;0.70;;;15.50;99.90;;;;;;5051955;28;20451;-63
2023/03/31 10:38:52;;;;;;;7.40;1.10;;;15.30;99.90;;;;;;5050724;28;20377;-62
2023/03/31 10:41:21;;;;;;;6.15;1.00;;;15.30;99.90;;;;;;5051453;28;20381;-62
2023/03/31 10:43:52;;;;;;;5.10;0.60;;;15.20;99.90;;;;;;5051133;28;20388;-61
2023/03/31 10:46:18;;;;;;;5.90;1.15;;;15.40;99.90;;;;;;5051634;28;20471;-62
2023/03/31 10:48:45;;;;;;;8.10;1.52;;;16.20;99.90;;;;;;5050751;28;20444;-61
2023/03/31 10:51:26;;;;;;;5.20;1.00;;;16.50;99.90;;;;;;5036244;28;20773;-62
2023/03/31 10:53:59;;;;;;;7.00;0.82;;;16.20;99.90;;;;;;5030932;28;20407;-62
2023/03/31 10:56:42;;;;;;;7.57;0.85;;;15.90;99.90;;;;;;5031655;28;20449;-63
2023/03/31 10:59:32;;;;;;;4.80;0.70;;;15.90;99.90;;;;;;5031703;28;20779;-62
2023/03/31 11:02:33;;;;;;;6.50;1.10;;;15.90;99.90;;;;;;5031013;28;20391;-62
2023/03/31 11:05:30;;;;;;;6.60;1.10;;;15.60;99.90;;;;;;5030633;28;20390;-63
2023/03/31 11:08:10;;;;;;;6.20;0.77;;;15.50;99.90;;;;;;5031136;28;20506;-63
2023/03/31 11:10:51;;;;;;;5.05;0.60;;;15.00;99.90;;;;;;5030374;28;20717;-62
2023/03/31 11:13:37;;;;;;;5.40;0.70;;;14.40;99.90;;;;;;5034996;28;20396;-62
2023/03/31 11:16:21;;;;;;;6.10;0.63;;;13.70;99.90;;;;;;5050863;28;20432;-62
2023/03/31 11:19:12;;;;;;;4.70;0.60;;;13.00;99.90;;;;;;5050062;28;20381;-63
2023/03/31 11:22:03;;;;;;;4.43;0.40;;;12.60;99.90;;;;;;5050579;28;20483;-62
2023/03/31 11:25:02;;;;;;;5.00;0.70;;;11.60;1.00;;;;;;5050997;28;20377;-63
2023/03/31 11:27:53;;;;;;;3.90;0.30;;;11.00;1.00;;;;;;5050443;28;20429;-63
2023/03/31 11:30:50;;;;;;;4.40;0.40;;;10.40;15.20;;;;;;5050987;28;20494;-63
2023/03/31 11:33:47;;;;;;;4.60;0.45;;;10.00;99.90;;;;;;5050742;28;20385;-63
2023/03/31 11:36:35;;;;;;;3.80;0.30;;;9.70;99.90;;;;;;5050457;28;20385;-63
2023/03/31 11:39:13;;;;;;;3.97;0.38;;;9.90;99.90;;;;;;5050574;28;20468;-63
2023/03/31 11:41:46;;;;;;;4.28;0.50;;;9.90;1.00;;;;;;5049852;28;20389;-63
2023/03/31 11:44:15;;;;;;;4.20;0.68;;;10.00;99.90;;;;;;5050840;28;20870;-63
2023/03/31 11:46:56;;;;;;;4.90;0.90;;;10.20;1.00;;;;;;5049484;28;20410;-63
2023/03/31 11:49:28;;;;;;;5.00;0.30;;;10.20;99.90;;;;;;5050739;28;20420;-64
2023/03/31 11:52:01;;;;;;;3.80;0.40;;;10.40;1.00;;;;;;5050066;28;20392;-64
2023/03/31 11:55:01;;;;;;;4.20;0.30;;;10.50;99.90;;;;;;5050268;28;20386;-64
2023/03/31 11:58:01;;;;;;;6.10;0.35;;;10.70;99.90;;;;;;4991705;28;20420;-64
2023/03/31 12:00:38;;;;;;;4.60;0.50;;;10.80;1.00;;;;;;5050812;28;20465;-64
2023/03/31 12:03:11;;;;;;;3.70;0.30;;;10.90;58.60;;;;;;5048951;28;20477;-63
2023/03/31 12:05:44;;;;;;;4.10;0.50;;;11.10;1.00;;;;;;5049655;28;21319;-63
2023/03/31 12:08:28;;;;;;;4.40;0.40;;;11.20;99.90;;;;;;5049823;28;20404;-63
2023/03/31 12:11:02;;;;;;;4.00;0.40;;;11.50;1.00;;;;;;5049614;28;20626;-63
2023/03/31 12:13:43;;;;;;;4.68;0.40;;;12.20;99.90;;;;;;5049979;28;20393;-64
2023/03/31 12:16:14;;;;;;;4.40;0.50;;;12.60;1.00;;;;;;5049881;28;20521;-63
2023/03/31 12:18:48;;;;;;;4.10;0.40;;;12.80;99.90;;;;;;5050111;28;20482;-63
2023/03/31 12:21:15;;;;;;;4.30;0.30;;;13.20;99.90;;;;;;5049472;28;20464;-63
2023/03/31 12:23:45;;;;;;;4.50;0.50;;;13.20;99.90;;;;;;5047553;28;20390;-63
2023/03/31 12:26:56;;;;;;;4.00;0.40;;;13.40;99.90;;;;;;5048959;28;20492;-64
2023/03/31 12:29:22;;;;;;;5.60;0.70;;;13.70;99.90;;;;;;5025811;28;20506;-64
2023/03/31 12:31:49;;;;;;;3.97;0.32;;;13.40;41.30;;;;;;5028723;28;20823;-64
2023/03/31 12:34:18;;;;;;;4.70;0.40;;;13.30;1.00;;;;;;5029876;28;20478;-64
2023/03/31 12:37:09;;;;;;;4.00;0.40;;;13.50;19.30;;;;;;5029125;28;21023;-64
2023/03/31 12:39:48;;;;;;;4.40;0.40;;;13.70;1.00;;;;;;5029560;28;20385;-63
2023/03/31 12:42:35;;;;;;;4.10;0.40;;;13.80;1.00;;;;;;5030124;28;20875;-64
2023/03/31 12:45:10;;;;;;;7.10;0.70;;;14.30;1.00;;;;;;5029424;28;20394;-64
2023/03/31 12:48:13;;;;;;;7.50;0.70;;;14.50;1.00;;;;;;5029206;28;20941;-63
2023/03/31 12:51:03;;;;;;;7.10;0.50;;;14.70;1.00;;;;;;5029233;28;20406;-63
2023/03/31 12:53:31;;;;;;;6.40;0.60;;;14.90;1.00;;;;;;5029816;28;20398;-64
2023/03/31 12:55:58;;;;;;;6.00;0.60;;;14.80;1.00;;;;;;5028939;28;21283;-64
2023/03/31 12:58:23;;;;;;;5.50;0.43;;;15.00;1.00;;;;;;5029998;28;20494;-64
2023/03/31 13:01:20;;;;;;;9.10;0.98;;;14.80;1.00;;;;;;5039703;28;20489;-64
2023/03/31 13:03:52;;;;;;;5.50;1.00;;;14.80;1.00;;;;;;5028625;28;20399;-64
2023/03/31 13:06:48;;;;;;;6.90;0.60;;;15.30;1.00;;;;;;5046705;28;20439;-64
2023/03/31 13:09:14;;;;;;;5.93;0.52;;;15.40;1.00;;;;;;5049271;28;20441;-64
2023/03/31 13:11:43;;;;;;;5.40;0.90;;;15.00;1.00;;;;;;5048434;28;20874;-63
2023/03/31 13:14:37;;;;;;;4.05;0.30;;;13.90;1.00;;;;;;5048948;28;20409;-64
2023/03/31 13:17:27;;;;;;;5.03;0.45;;;13.30;1.00;;;;;;5048850;28;20793;-63